sensor_id;sensor_type;location;lat;lon;timestamp;temperature;humidity
7606;DHT22;3844;53.360;9.738;2022-08-24T00:00:58;20.00;70.70
7606;DHT22;3844;53.360;9.738;2022-08-24T00:02:58;20.00;70.80
7606;DHT22;3844;53.360;9.738;2022-08-24T00:04:59;20.00;70.60
7606;DHT22;3844;53.360;9.738;2022-08-24T00:07:01;20.00;71.00
7606;DHT22;3844;53.360;9.738;2022-08-24T00:09:03;19.90;71.10
7606;DHT22;3844;53.360;9.738;2022-08-24T00:11:04;19.90;71.20
7606;DHT22;3844;53.360;9.738;2022-08-24T00:13:05;19.80;71.10
7606;DHT22;3844;53.360;9.738;2022-08-24T00:15:07;19.80;71.30
7606;DHT22;3844;53.360;9.738;2022-08-24T00:17:08;19.70;71.60
7606;DHT22;3844;53.360;9.738;2022-08-24T00:19:09;19.60;72.10
7606;DHT22;3844;53.360;9.738;2022-08-24T00:21:11;19.60;72.20
7606;DHT22;3844;53.360;9.738;2022-08-24T00:23:12;19.60;72.30
7606;DHT22;3844;53.360;9.738;2022-08-24T00:25:13;19.60;72.20
7606;DHT22;3844;53.360;9.738;2022-08-24T00:27:14;19.50;72.50
7606;DHT22;3844;53.360;9.738;2022-08-24T00:29:16;19.50;72.40
7606;DHT22;3844;53.360;9.738;2022-08-24T00:31:17;19.50;72.40
7606;DHT22;3844;53.360;9.738;2022-08-24T00:33:20;19.50;72.80
7606;DHT22;3844;53.360;9.738;2022-08-24T00:35:21;19.40;72.80
7606;DHT22;3844;53.360;9.738;2022-08-24T00:37:22;19.40;73.00
7606;DHT22;3844;53.360;9.738;2022-08-24T00:39:24;19.40;73.20
7606;DHT22;3844;53.360;9.738;2022-08-24T00:41:25;19.30;73.20
7606;DHT22;3844;53.360;9.738;2022-08-24T00:43:27;19.30;73.40
7606;DHT22;3844;53.360;9.738;2022-08-24T00:45:54;19.20;73.40
7606;DHT22;3844;53.360;9.738;2022-08-24T00:47:57;19.10;73.50
7606;DHT22;3844;53.360;9.738;2022-08-24T00:50:06;19.10;73.60
7606;DHT22;3844;53.360;9.738;2022-08-24T00:52:10;19.00;73.90
7606;DHT22;3844;53.360;9.738;2022-08-24T00:54:14;19.00;74.10
7606;DHT22;3844;53.360;9.738;2022-08-24T00:56:20;19.00;74.10
7606;DHT22;3844;53.360;9.738;2022-08-24T00:58:27;18.90;74.20
7606;DHT22;3844;53.360;9.738;2022-08-24T01:00:32;18.90;74.70
7606;DHT22;3844;53.360;9.738;2022-08-24T01:02:37;18.90;74.60
7606;DHT22;3844;53.360;9.738;2022-08-24T01:04:53;18.80;74.60
7606;DHT22;3844;53.360;9.738;2022-08-24T01:06:56;18.80;75.00
7606;DHT22;3844;53.360;9.738;2022-08-24T01:08:57;18.70;75.10
7606;DHT22;3844;53.360;9.738;2022-08-24T01:11:01;18.70;75.10
7606;DHT22;3844;53.360;9.738;2022-08-24T01:13:06;18.70;75.30
7606;DHT22;3844;53.360;9.738;2022-08-24T01:15:09;18.70;75.50
7606;DHT22;3844;53.360;9.738;2022-08-24T01:17:11;18.70;75.30
7606;DHT22;3844;53.360;9.738;2022-08-24T01:19:45;18.70;75.50
7606;DHT22;3844;53.360;9.738;2022-08-24T01:22:00;18.60;75.80
7606;DHT22;3844;53.360;9.738;2022-08-24T01:24:09;18.60;75.90
7606;DHT22;3844;53.360;9.738;2022-08-24T01:26:20;18.60;75.60
7606;DHT22;3844;53.360;9.738;2022-08-24T01:28:22;18.60;75.90
7606;DHT22;3844;53.360;9.738;2022-08-24T01:30:23;18.60;75.90
7606;DHT22;3844;53.360;9.738;2022-08-24T01:32:25;18.60;76.10
7606;DHT22;3844;53.360;9.738;2022-08-24T01:34:27;18.60;76.40
7606;DHT22;3844;53.360;9.738;2022-08-24T01:36:35;18.50;76.10
7606;DHT22;3844;53.360;9.738;2022-08-24T01:38:36;18.50;76.20
7606;DHT22;3844;53.360;9.738;2022-08-24T01:40:47;18.50;76.40
7606;DHT22;3844;53.360;9.738;2022-08-24T01:42:51;18.50;76.80
7606;DHT22;3844;53.360;9.738;2022-08-24T01:44:52;18.40;76.70
7606;DHT22;3844;53.360;9.738;2022-08-24T01:46:55;18.40;77.00
7606;DHT22;3844;53.360;9.738;2022-08-24T01:48:57;18.40;77.00
7606;DHT22;3844;53.360;9.738;2022-08-24T01:50:58;18.30;77.30
7606;DHT22;3844;53.360;9.738;2022-08-24T01:53:00;18.30;77.40
7606;DHT22;3844;53.360;9.738;2022-08-24T01:55:05;18.20;77.50
7606;DHT22;3844;53.360;9.738;2022-08-24T01:57:06;18.10;77.60
7606;DHT22;3844;53.360;9.738;2022-08-24T01:59:07;18.10;78.40
7606;DHT22;3844;53.360;9.738;2022-08-24T02:01:08;18.10;78.10
7606;DHT22;3844;53.360;9.738;2022-08-24T02:03:09;18.10;78.60
7606;DHT22;3844;53.360;9.738;2022-08-24T02:05:11;18.00;78.60
7606;DHT22;3844;53.360;9.738;2022-08-24T02:07:12;18.00;79.10
7606;DHT22;3844;53.360;9.738;2022-08-24T02:09:13;17.90;79.30
7606;DHT22;3844;53.360;9.738;2022-08-24T02:11:14;17.90;79.10
7606;DHT22;3844;53.360;9.738;2022-08-24T02:15:16;17.80;79.20
7606;DHT22;3844;53.360;9.738;2022-08-24T02:17:17;17.80;79.80
7606;DHT22;3844;53.360;9.738;2022-08-24T02:19:18;17.80;80.10
7606;DHT22;3844;53.360;9.738;2022-08-24T02:21:18;17.80;79.80
7606;DHT22;3844;53.360;9.738;2022-08-24T02:23:19;17.80;80.00
7606;DHT22;3844;53.360;9.738;2022-08-24T02:25:20;17.80;79.80
7606;DHT22;3844;53.360;9.738;2022-08-24T02:27:21;17.80;79.70
7606;DHT22;3844;53.360;9.738;2022-08-24T02:29:22;17.80;79.50
7606;DHT22;3844;53.360;9.738;2022-08-24T02:31:22;17.70;79.70
7606;DHT22;3844;53.360;9.738;2022-08-24T02:33:24;17.70;80.20
7606;DHT22;3844;53.360;9.738;2022-08-24T02:35:27;17.70;80.00
7606;DHT22;3844;53.360;9.738;2022-08-24T02:37:28;17.70;80.60
7606;DHT22;3844;53.360;9.738;2022-08-24T02:39:28;17.60;80.20
7606;DHT22;3844;53.360;9.738;2022-08-24T02:41:29;17.60;80.30
7606;DHT22;3844;53.360;9.738;2022-08-24T02:45:31;17.60;81.10
7606;DHT22;3844;53.360;9.738;2022-08-24T02:47:34;17.60;81.20
7606;DHT22;3844;53.360;9.738;2022-08-24T02:49:35;17.60;81.00
7606;DHT22;3844;53.360;9.738;2022-08-24T02:51:37;17.60;81.20
7606;DHT22;3844;53.360;9.738;2022-08-24T02:53:38;17.50;81.40
7606;DHT22;3844;53.360;9.738;2022-08-24T02:55:40;17.50;81.50
7606;DHT22;3844;53.360;9.738;2022-08-24T02:57:41;17.50;81.90
7606;DHT22;3844;53.360;9.738;2022-08-24T02:59:42;17.50;81.80
7606;DHT22;3844;53.360;9.738;2022-08-24T03:03:44;17.50;82.20
7606;DHT22;3844;53.360;9.738;2022-08-24T03:05:45;17.40;82.50
7606;DHT22;3844;53.360;9.738;2022-08-24T03:07:47;17.40;82.50
7606;DHT22;3844;53.360;9.738;2022-08-24T03:09:47;17.40;82.40
7606;DHT22;3844;53.360;9.738;2022-08-24T03:13:49;17.40;82.70
7606;DHT22;3844;53.360;9.738;2022-08-24T03:17:51;17.30;83.20
7606;DHT22;3844;53.360;9.738;2022-08-24T03:21:53;17.20;83.50
7606;DHT22;3844;53.360;9.738;2022-08-24T03:23:54;17.20;83.40
7606;DHT22;3844;53.360;9.738;2022-08-24T03:25:55;17.10;83.50
7606;DHT22;3844;53.360;9.738;2022-08-24T03:27:56;17.10;83.60
7606;DHT22;3844;53.360;9.738;2022-08-24T03:29:56;17.10;83.50
7606;DHT22;3844;53.360;9.738;2022-08-24T03:31:58;17.00;83.50
7606;DHT22;3844;53.360;9.738;2022-08-24T03:33:58;17.00;83.70
7606;DHT22;3844;53.360;9.738;2022-08-24T03:35:59;17.00;83.80
7606;DHT22;3844;53.360;9.738;2022-08-24T03:38:00;17.00;83.90
7606;DHT22;3844;53.360;9.738;2022-08-24T03:40:01;17.00;84.70
7606;DHT22;3844;53.360;9.738;2022-08-24T03:42:02;17.00;84.30
7606;DHT22;3844;53.360;9.738;2022-08-24T03:44:03;17.00;85.00
7606;DHT22;3844;53.360;9.738;2022-08-24T03:46:06;17.00;84.50
7606;DHT22;3844;53.360;9.738;2022-08-24T03:48:07;17.00;84.70
7606;DHT22;3844;53.360;9.738;2022-08-24T03:50:08;17.00;84.70
7606;DHT22;3844;53.360;9.738;2022-08-24T03:52:09;16.90;84.60
7606;DHT22;3844;53.360;9.738;2022-08-24T03:54:11;16.90;84.60
7606;DHT22;3844;53.360;9.738;2022-08-24T03:56:12;16.90;85.10
7606;DHT22;3844;53.360;9.738;2022-08-24T03:58:13;16.90;85.30
7606;DHT22;3844;53.360;9.738;2022-08-24T04:00:14;16.80;85.70
7606;DHT22;3844;53.360;9.738;2022-08-24T04:02:15;16.80;85.30
7606;DHT22;3844;53.360;9.738;2022-08-24T04:04:16;16.80;85.00
7606;DHT22;3844;53.360;9.738;2022-08-24T04:06:18;16.80;85.60
7606;DHT22;3844;53.360;9.738;2022-08-24T04:08:19;16.80;85.50
7606;DHT22;3844;53.360;9.738;2022-08-24T04:10:20;16.80;85.70
7606;DHT22;3844;53.360;9.738;2022-08-24T04:12:21;16.70;85.90
7606;DHT22;3844;53.360;9.738;2022-08-24T04:14:22;16.70;85.90
7606;DHT22;3844;53.360;9.738;2022-08-24T04:16:24;16.70;86.10
7606;DHT22;3844;53.360;9.738;2022-08-24T04:18:25;16.70;86.40
7606;DHT22;3844;53.360;9.738;2022-08-24T04:20:26;16.70;86.20
7606;DHT22;3844;53.360;9.738;2022-08-24T04:22:29;16.70;86.60
7606;DHT22;3844;53.360;9.738;2022-08-24T04:24:30;16.70;86.40
7606;DHT22;3844;53.360;9.738;2022-08-24T04:26:32;16.70;86.60
7606;DHT22;3844;53.360;9.738;2022-08-24T04:28:32;16.70;86.70
7606;DHT22;3844;53.360;9.738;2022-08-24T04:30:33;16.70;86.70
7606;DHT22;3844;53.360;9.738;2022-08-24T04:32:34;16.70;86.70
7606;DHT22;3844;53.360;9.738;2022-08-24T04:34:35;16.70;86.60
7606;DHT22;3844;53.360;9.738;2022-08-24T04:36:35;16.70;86.60
7606;DHT22;3844;53.360;9.738;2022-08-24T04:38:37;16.80;87.60
7606;DHT22;3844;53.360;9.738;2022-08-24T04:40:39;16.80;86.80
7606;DHT22;3844;53.360;9.738;2022-08-24T04:42:40;16.90;86.60
7606;DHT22;3844;53.360;9.738;2022-08-24T04:44:40;16.90;86.60
7606;DHT22;3844;53.360;9.738;2022-08-24T04:46:41;16.80;86.60
7606;DHT22;3844;53.360;9.738;2022-08-24T04:48:44;16.80;86.60
7606;DHT22;3844;53.360;9.738;2022-08-24T04:50:45;16.80;87.20
7606;DHT22;3844;53.360;9.738;2022-08-24T04:52:46;16.90;87.40
7606;DHT22;3844;53.360;9.738;2022-08-24T04:54:47;16.90;87.40
7606;DHT22;3844;53.360;9.738;2022-08-24T04:56:47;16.90;87.40
7606;DHT22;3844;53.360;9.738;2022-08-24T04:58:49;17.00;87.20
7606;DHT22;3844;53.360;9.738;2022-08-24T05:00:50;17.00;87.00
7606;DHT22;3844;53.360;9.738;2022-08-24T05:02:50;17.00;86.90
7606;DHT22;3844;53.360;9.738;2022-08-24T05:04:51;17.10;87.00
7606;DHT22;3844;53.360;9.738;2022-08-24T05:06:52;17.10;87.00
7606;DHT22;3844;53.360;9.738;2022-08-24T05:08:53;17.10;86.90
7606;DHT22;3844;53.360;9.738;2022-08-24T05:10:54;17.20;86.80
7606;DHT22;3844;53.360;9.738;2022-08-24T05:12:55;17.20;86.80
7606;DHT22;3844;53.360;9.738;2022-08-24T05:14:56;17.30;86.60
7606;DHT22;3844;53.360;9.738;2022-08-24T05:16:57;17.40;86.40
7606;DHT22;3844;53.360;9.738;2022-08-24T05:18:57;17.50;86.40
7606;DHT22;3844;53.360;9.738;2022-08-24T05:20:58;17.60;86.40
7606;DHT22;3844;53.360;9.738;2022-08-24T05:22:59;17.70;86.00
7606;DHT22;3844;53.360;9.738;2022-08-24T05:25:00;17.80;85.50
7606;DHT22;3844;53.360;9.738;2022-08-24T05:27:00;17.90;85.30
7606;DHT22;3844;53.360;9.738;2022-08-24T05:29:01;18.00;85.20
7606;DHT22;3844;53.360;9.738;2022-08-24T05:31:11;18.10;85.20
7606;DHT22;3844;53.360;9.738;2022-08-24T05:33:12;18.30;84.70
7606;DHT22;3844;53.360;9.738;2022-08-24T05:35:13;18.40;84.00
7606;DHT22;3844;53.360;9.738;2022-08-24T05:37:14;18.60;83.90
7606;DHT22;3844;53.360;9.738;2022-08-24T05:39:16;18.80;83.40
7606;DHT22;3844;53.360;9.738;2022-08-24T05:41:17;19.00;82.80
7606;DHT22;3844;53.360;9.738;2022-08-24T05:43:18;19.20;82.30
7606;DHT22;3844;53.360;9.738;2022-08-24T05:45:19;19.30;81.40
7606;DHT22;3844;53.360;9.738;2022-08-24T05:47:20;19.40;81.10
7606;DHT22;3844;53.360;9.738;2022-08-24T05:49:20;19.60;80.80
7606;DHT22;3844;53.360;9.738;2022-08-24T05:51:21;19.80;80.20
7606;DHT22;3844;53.360;9.738;2022-08-24T05:53:22;19.90;79.50
7606;DHT22;3844;53.360;9.738;2022-08-24T05:55:23;20.00;79.40
7606;DHT22;3844;53.360;9.738;2022-08-24T05:57:25;20.20;79.20
7606;DHT22;3844;53.360;9.738;2022-08-24T05:59:26;20.40;78.20
7606;DHT22;3844;53.360;9.738;2022-08-24T06:01:27;20.40;77.90
7606;DHT22;3844;53.360;9.738;2022-08-24T06:03:28;20.50;77.80
7606;DHT22;3844;53.360;9.738;2022-08-24T06:05:29;20.60;78.10
7606;DHT22;3844;53.360;9.738;2022-08-24T06:07:30;20.80;77.70
7606;DHT22;3844;53.360;9.738;2022-08-24T06:09:30;21.00;76.90
7606;DHT22;3844;53.360;9.738;2022-08-24T06:11:35;21.10;75.80
7606;DHT22;3844;53.360;9.738;2022-08-24T06:13:37;21.20;76.10
7606;DHT22;3844;53.360;9.738;2022-08-24T06:15:38;21.40;76.10
7606;DHT22;3844;53.360;9.738;2022-08-24T06:17:39;21.50;75.80
7606;DHT22;3844;53.360;9.738;2022-08-24T06:19:40;21.70;74.90
7606;DHT22;3844;53.360;9.738;2022-08-24T06:21:46;21.80;74.70
7606;DHT22;3844;53.360;9.738;2022-08-24T06:23:48;22.00;74.30
7606;DHT22;3844;53.360;9.738;2022-08-24T06:25:50;22.10;74.00
7606;DHT22;3844;53.360;9.738;2022-08-24T06:28:09;22.20;73.50
7606;DHT22;3844;53.360;9.738;2022-08-24T06:30:11;22.40;73.50
7606;DHT22;3844;53.360;9.738;2022-08-24T06:32:12;22.50;72.50
7606;DHT22;3844;53.360;9.738;2022-08-24T06:34:15;22.60;72.50
7606;DHT22;3844;53.360;9.738;2022-08-24T06:36:16;22.80;72.30
7606;DHT22;3844;53.360;9.738;2022-08-24T06:38:17;23.00;72.10
7606;DHT22;3844;53.360;9.738;2022-08-24T06:42:22;23.40;70.80
7606;DHT22;3844;53.360;9.738;2022-08-24T06:44:28;23.60;70.70
7606;DHT22;3844;53.360;9.738;2022-08-24T06:46:29;23.60;69.90
7606;DHT22;3844;53.360;9.738;2022-08-24T06:48:30;23.60;69.90
7606;DHT22;3844;53.360;9.738;2022-08-24T06:50:31;23.70;69.70
7606;DHT22;3844;53.360;9.738;2022-08-24T06:52:32;23.90;69.20
7606;DHT22;3844;53.360;9.738;2022-08-24T06:54:33;24.10;68.70
7606;DHT22;3844;53.360;9.738;2022-08-24T06:56:36;24.30;68.90
7606;DHT22;3844;53.360;9.738;2022-08-24T06:58:38;24.50;68.30
7606;DHT22;3844;53.360;9.738;2022-08-24T07:00:38;24.70;66.60
7606;DHT22;3844;53.360;9.738;2022-08-24T07:02:39;24.90;66.80
7606;DHT22;3844;53.360;9.738;2022-08-24T07:04:40;25.10;66.60
7606;DHT22;3844;53.360;9.738;2022-08-24T07:06:41;25.30;66.10
7606;DHT22;3844;53.360;9.738;2022-08-24T07:08:42;25.40;65.90
7606;DHT22;3844;53.360;9.738;2022-08-24T07:10:44;25.40;65.30
7606;DHT22;3844;53.360;9.738;2022-08-24T07:12:45;25.50;65.00
7606;DHT22;3844;53.360;9.738;2022-08-24T07:14:46;25.50;65.20
7606;DHT22;3844;53.360;9.738;2022-08-24T07:16:47;25.60;64.60
7606;DHT22;3844;53.360;9.738;2022-08-24T07:18:48;25.80;64.40
7606;DHT22;3844;53.360;9.738;2022-08-24T07:20:49;25.90;64.20
7606;DHT22;3844;53.360;9.738;2022-08-24T07:22:50;26.00;64.20
7606;DHT22;3844;53.360;9.738;2022-08-24T07:24:50;26.10;63.70
7606;DHT22;3844;53.360;9.738;2022-08-24T07:26:51;26.20;63.90
7606;DHT22;3844;53.360;9.738;2022-08-24T07:28:54;26.40;63.30
7606;DHT22;3844;53.360;9.738;2022-08-24T07:31:00;26.70;63.30
7606;DHT22;3844;53.360;9.738;2022-08-24T07:33:01;27.00;62.40
7606;DHT22;3844;53.360;9.738;2022-08-24T07:35:02;27.30;62.40
7606;DHT22;3844;53.360;9.738;2022-08-24T07:37:03;27.70;61.30
7606;DHT22;3844;53.360;9.738;2022-08-24T07:39:04;28.00;60.90
7606;DHT22;3844;53.360;9.738;2022-08-24T07:41:05;28.40;60.10
7606;DHT22;3844;53.360;9.738;2022-08-24T07:43:06;28.70;59.70
7606;DHT22;3844;53.360;9.738;2022-08-24T07:45:07;29.20;58.90
7606;DHT22;3844;53.360;9.738;2022-08-24T07:47:08;29.30;57.30
7606;DHT22;3844;53.360;9.738;2022-08-24T07:49:10;29.30;57.40
7606;DHT22;3844;53.360;9.738;2022-08-24T07:51:16;29.40;56.90
7606;DHT22;3844;53.360;9.738;2022-08-24T07:53:17;29.30;57.20
7606;DHT22;3844;53.360;9.738;2022-08-24T07:55:17;29.40;57.80
7606;DHT22;3844;53.360;9.738;2022-08-24T07:57:18;29.70;57.50
7606;DHT22;3844;53.360;9.738;2022-08-24T07:59:19;30.20;55.40
7606;DHT22;3844;53.360;9.738;2022-08-24T08:01:20;30.40;55.90
7606;DHT22;3844;53.360;9.738;2022-08-24T08:03:21;30.70;55.00
7606;DHT22;3844;53.360;9.738;2022-08-24T08:05:24;31.00;55.00
7606;DHT22;3844;53.360;9.738;2022-08-24T08:07:25;31.30;54.40
7606;DHT22;3844;53.360;9.738;2022-08-24T08:09:26;31.40;53.20
7606;DHT22;3844;53.360;9.738;2022-08-24T08:11:27;31.10;53.30
7606;DHT22;3844;53.360;9.738;2022-08-24T08:13:29;30.90;54.30
7606;DHT22;3844;53.360;9.738;2022-08-24T08:15:30;30.60;54.10
7606;DHT22;3844;53.360;9.738;2022-08-24T08:17:31;30.50;54.60
7606;DHT22;3844;53.360;9.738;2022-08-24T08:19:33;30.70;54.50
7606;DHT22;3844;53.360;9.738;2022-08-24T08:21:33;31.00;54.90
7606;DHT22;3844;53.360;9.738;2022-08-24T08:23:53;31.50;53.90
7606;DHT22;3844;53.360;9.738;2022-08-24T08:26:14;31.70;53.10
7606;DHT22;3844;53.360;9.738;2022-08-24T08:30:17;32.10;52.80
7606;DHT22;3844;53.360;9.738;2022-08-24T08:32:17;32.30;52.60
7606;DHT22;3844;53.360;9.738;2022-08-24T08:34:19;32.70;52.60
7606;DHT22;3844;53.360;9.738;2022-08-24T08:36:20;33.00;51.80
7606;DHT22;3844;53.360;9.738;2022-08-24T08:38:22;33.50;50.50
7606;DHT22;3844;53.360;9.738;2022-08-24T08:52:21;34.20;49.60
7606;DHT22;3844;53.360;9.738;2022-08-24T08:57:38;34.50;48.50
7606;DHT22;3844;53.360;9.738;2022-08-24T09:00:13;34.60;48.80
7606;DHT22;3844;53.360;9.738;2022-08-24T09:07:50;35.10;47.60
7606;DHT22;3844;53.360;9.738;2022-08-24T09:20:25;35.50;47.30
7606;DHT22;3844;53.360;9.738;2022-08-24T09:22:17;35.70;46.70
7606;DHT22;3844;53.360;9.738;2022-08-24T09:29:42;35.70;46.70
7606;DHT22;3844;53.360;9.738;2022-08-24T09:34:25;36.00;45.60
7606;DHT22;3844;53.360;9.738;2022-08-24T09:38:58;35.30;47.30
7606;DHT22;3844;53.360;9.738;2022-08-24T10:01:31;36.90;44.70
7606;DHT22;3844;53.360;9.738;2022-08-24T10:06:21;37.50;42.90
7606;DHT22;3844;53.360;9.738;2022-08-24T10:09:33;37.40;43.30
7606;DHT22;3844;53.360;9.738;2022-08-24T10:11:46;37.50;43.30
7606;DHT22;3844;53.360;9.738;2022-08-24T10:14:02;37.50;43.20
7606;DHT22;3844;53.360;9.738;2022-08-24T10:35:27;38.60;40.80
7606;DHT22;3844;53.360;9.738;2022-08-24T10:50:26;37.80;41.10
7606;DHT22;3844;53.360;9.738;2022-08-24T10:54:44;37.50;42.40
7606;DHT22;3844;53.360;9.738;2022-08-24T10:57:05;37.50;42.40
7606;DHT22;3844;53.360;9.738;2022-08-24T11:01:37;38.50;40.20
7606;DHT22;3844;53.360;9.738;2022-08-24T11:05:54;38.70;40.40
7606;DHT22;3844;53.360;9.738;2022-08-24T11:10:00;38.80;40.00
7606;DHT22;3844;53.360;9.738;2022-08-24T11:12:16;39.20;39.50
7606;DHT22;3844;53.360;9.738;2022-08-24T11:16:31;39.20;38.00
7606;DHT22;3844;53.360;9.738;2022-08-24T11:18:47;38.90;38.70
7606;DHT22;3844;53.360;9.738;2022-08-24T11:20:53;38.80;39.00
7606;DHT22;3844;53.360;9.738;2022-08-24T11:23:20;38.80;38.60
7606;DHT22;3844;53.360;9.738;2022-08-24T11:25:27;38.30;39.30
7606;DHT22;3844;53.360;9.738;2022-08-24T11:27:33;38.20;39.90
7606;DHT22;3844;53.360;9.738;2022-08-24T11:31:52;37.70;41.00
7606;DHT22;3844;53.360;9.738;2022-08-24T11:34:00;37.70;39.60
7606;DHT22;3844;53.360;9.738;2022-08-24T11:36:14;37.50;40.20
7606;DHT22;3844;53.360;9.738;2022-08-24T11:38:19;37.40;39.80
7606;DHT22;3844;53.360;9.738;2022-08-24T11:40:26;37.50;40.50
7606;DHT22;3844;53.360;9.738;2022-08-24T11:50:10;38.20;39.30
7606;DHT22;3844;53.360;9.738;2022-08-24T11:52:07;38.20;39.60
7606;DHT22;3844;53.360;9.738;2022-08-24T11:56:51;38.30;40.00
7606;DHT22;3844;53.360;9.738;2022-08-24T12:01:18;38.20;40.30
7606;DHT22;3844;53.360;9.738;2022-08-24T12:03:48;38.10;40.00
7606;DHT22;3844;53.360;9.738;2022-08-24T12:14:45;38.10;40.20
7606;DHT22;3844;53.360;9.738;2022-08-24T12:17:01;38.40;39.80
7606;DHT22;3844;53.360;9.738;2022-08-24T12:19:26;38.80;38.60
7606;DHT22;3844;53.360;9.738;2022-08-24T12:21:32;38.90;39.00
7606;DHT22;3844;53.360;9.738;2022-08-24T12:23:51;39.00;39.00
7606;DHT22;3844;53.360;9.738;2022-08-24T12:25:59;39.20;38.90
7606;DHT22;3844;53.360;9.738;2022-08-24T12:28:02;39.10;39.10
7606;DHT22;3844;53.360;9.738;2022-08-24T12:30:11;39.20;39.30
7606;DHT22;3844;53.360;9.738;2022-08-24T12:32:20;39.40;39.40
7606;DHT22;3844;53.360;9.738;2022-08-24T12:36:49;38.80;39.00
7606;DHT22;3844;53.360;9.738;2022-08-24T12:39:00;38.60;39.00
7606;DHT22;3844;53.360;9.738;2022-08-24T12:41:18;38.30;39.50
7606;DHT22;3844;53.360;9.738;2022-08-24T12:45:33;38.40;39.70
7606;DHT22;3844;53.360;9.738;2022-08-24T12:50:15;38.90;39.30
7606;DHT22;3844;53.360;9.738;2022-08-24T12:56:41;39.50;38.70
7606;DHT22;3844;53.360;9.738;2022-08-24T12:58:57;39.10;38.10
7606;DHT22;3844;53.360;9.738;2022-08-24T13:01:03;38.30;38.90
7606;DHT22;3844;53.360;9.738;2022-08-24T13:03:07;37.80;39.50
7606;DHT22;3844;53.360;9.738;2022-08-24T13:05:14;37.40;39.50
7606;DHT22;3844;53.360;9.738;2022-08-24T13:11:32;37.40;40.10
7606;DHT22;3844;53.360;9.738;2022-08-24T13:15:53;38.00;38.90
7606;DHT22;3844;53.360;9.738;2022-08-24T13:20:53;38.20;39.70
7606;DHT22;3844;53.360;9.738;2022-08-24T13:25:37;38.60;39.60
7606;DHT22;3844;53.360;9.738;2022-08-24T13:27:46;38.70;38.50
7606;DHT22;3844;53.360;9.738;2022-08-24T13:32:29;38.30;38.20
7606;DHT22;3844;53.360;9.738;2022-08-24T13:34:40;37.70;39.50
7606;DHT22;3844;53.360;9.738;2022-08-24T13:37:12;37.60;39.90
7606;DHT22;3844;53.360;9.738;2022-08-24T13:39:35;37.80;39.00
7606;DHT22;3844;53.360;9.738;2022-08-24T13:55:27;36.60;39.40
7606;DHT22;3844;53.360;9.738;2022-08-24T13:57:50;36.00;40.10
7606;DHT22;3844;53.360;9.738;2022-08-24T14:11:09;35.60;40.50
7606;DHT22;3844;53.360;9.738;2022-08-24T14:15:47;35.20;41.30
7606;DHT22;3844;53.360;9.738;2022-08-24T14:22:38;34.00;42.70
7606;DHT22;3844;53.360;9.738;2022-08-24T14:24:45;33.80;42.60
7606;DHT22;3844;53.360;9.738;2022-08-24T14:26:56;33.80;42.40
7606;DHT22;3844;53.360;9.738;2022-08-24T14:31:23;33.40;42.50
7606;DHT22;3844;53.360;9.738;2022-08-24T14:33:32;33.10;43.80
7606;DHT22;3844;53.360;9.738;2022-08-24T14:40:50;32.80;44.10
7606;DHT22;3844;53.360;9.738;2022-08-24T14:42:55;32.80;44.40
7606;DHT22;3844;53.360;9.738;2022-08-24T14:47:24;32.80;44.20
7606;DHT22;3844;53.360;9.738;2022-08-24T14:59:06;31.90;46.30
7606;DHT22;3844;53.360;9.738;2022-08-24T15:01:39;31.80;46.40
7606;DHT22;3844;53.360;9.738;2022-08-24T15:04:46;31.60;47.20
7606;DHT22;3844;53.360;9.738;2022-08-24T15:06:29;31.50;47.50
7606;DHT22;3844;53.360;9.738;2022-08-24T15:08:35;31.60;47.50
7606;DHT22;3844;53.360;9.738;2022-08-24T15:10:54;31.50;47.50
7606;DHT22;3844;53.360;9.738;2022-08-24T15:13:00;31.40;47.90
7606;DHT22;3844;53.360;9.738;2022-08-24T15:15:13;31.40;47.80
7606;DHT22;3844;53.360;9.738;2022-08-24T15:17:18;31.40;48.00
7606;DHT22;3844;53.360;9.738;2022-08-24T15:19:23;31.40;48.20
7606;DHT22;3844;53.360;9.738;2022-08-24T15:25:57;30.90;49.00
7606;DHT22;3844;53.360;9.738;2022-08-24T15:28:13;30.90;49.40
7606;DHT22;3844;53.360;9.738;2022-08-24T15:30:24;30.90;49.30
7606;DHT22;3844;53.360;9.738;2022-08-24T15:33:04;30.90;48.70
7606;DHT22;3844;53.360;9.738;2022-08-24T15:35:23;30.70;49.20
7606;DHT22;3844;53.360;9.738;2022-08-24T15:37:29;30.60;49.60
7606;DHT22;3844;53.360;9.738;2022-08-24T15:39:30;30.50;49.80
7606;DHT22;3844;53.360;9.738;2022-08-24T15:41:34;30.50;49.90
7606;DHT22;3844;53.360;9.738;2022-08-24T15:43:47;30.40;50.40
7606;DHT22;3844;53.360;9.738;2022-08-24T15:45:50;30.40;50.30
7606;DHT22;3844;53.360;9.738;2022-08-24T15:47:51;30.40;50.10
7606;DHT22;3844;53.360;9.738;2022-08-24T15:50:00;30.40;50.40
7606;DHT22;3844;53.360;9.738;2022-08-24T15:52:42;30.40;50.50
7606;DHT22;3844;53.360;9.738;2022-08-24T15:54:55;30.30;50.50
7606;DHT22;3844;53.360;9.738;2022-08-24T15:59:43;29.90;51.40
7606;DHT22;3844;53.360;9.738;2022-08-24T16:02:16;29.90;51.60
7606;DHT22;3844;53.360;9.738;2022-08-24T16:04:46;29.80;51.40
7606;DHT22;3844;53.360;9.738;2022-08-24T16:06:47;29.70;51.70
7606;DHT22;3844;53.360;9.738;2022-08-24T16:11:27;29.70;51.80
7606;DHT22;3844;53.360;9.738;2022-08-24T16:13:29;29.60;51.50
7606;DHT22;3844;53.360;9.738;2022-08-24T16:15:31;29.60;51.30
7606;DHT22;3844;53.360;9.738;2022-08-24T16:17:39;29.50;51.30
7606;DHT22;3844;53.360;9.738;2022-08-24T16:19:49;29.40;51.70
7606;DHT22;3844;53.360;9.738;2022-08-24T16:21:57;29.40;52.00
7606;DHT22;3844;53.360;9.738;2022-08-24T16:24:07;29.40;51.90
7606;DHT22;3844;53.360;9.738;2022-08-24T16:28:43;29.30;51.80
7606;DHT22;3844;53.360;9.738;2022-08-24T16:30:48;29.20;51.90
7606;DHT22;3844;53.360;9.738;2022-08-24T16:32:56;29.20;52.30
7606;DHT22;3844;53.360;9.738;2022-08-24T16:37:02;29.00;52.20
7606;DHT22;3844;53.360;9.738;2022-08-24T16:39:03;29.00;52.20
7606;DHT22;3844;53.360;9.738;2022-08-24T16:41:08;29.00;52.30
7606;DHT22;3844;53.360;9.738;2022-08-24T16:43:09;28.90;52.10
7606;DHT22;3844;53.360;9.738;2022-08-24T16:45:11;28.80;52.00
7606;DHT22;3844;53.360;9.738;2022-08-24T16:47:17;28.60;52.40
7606;DHT22;3844;53.360;9.738;2022-08-24T16:49:17;28.60;52.60
7606;DHT22;3844;53.360;9.738;2022-08-24T16:51:18;28.50;53.10
7606;DHT22;3844;53.360;9.738;2022-08-24T16:53:19;28.40;53.00
7606;DHT22;3844;53.360;9.738;2022-08-24T16:55:19;28.30;53.40
7606;DHT22;3844;53.360;9.738;2022-08-24T16:57:23;28.20;52.90
7606;DHT22;3844;53.360;9.738;2022-08-24T16:59:29;28.20;53.00
7606;DHT22;3844;53.360;9.738;2022-08-24T17:01:31;28.10;53.30
7606;DHT22;3844;53.360;9.738;2022-08-24T17:03:32;28.10;53.40
7606;DHT22;3844;53.360;9.738;2022-08-24T17:05:33;28.00;53.40
7606;DHT22;3844;53.360;9.738;2022-08-24T17:07:34;28.00;53.20
7606;DHT22;3844;53.360;9.738;2022-08-24T17:09:37;27.90;52.70
7606;DHT22;3844;53.360;9.738;2022-08-24T17:11:38;27.80;53.30
7606;DHT22;3844;53.360;9.738;2022-08-24T17:13:39;27.70;53.00
7606;DHT22;3844;53.360;9.738;2022-08-24T17:15:41;27.70;52.90
7606;DHT22;3844;53.360;9.738;2022-08-24T17:17:47;27.60;53.00
7606;DHT22;3844;53.360;9.738;2022-08-24T17:19:53;27.60;53.00
7606;DHT22;3844;53.360;9.738;2022-08-24T17:21:54;27.60;53.30
7606;DHT22;3844;53.360;9.738;2022-08-24T17:25:56;27.40;53.50
7606;DHT22;3844;53.360;9.738;2022-08-24T17:27:57;27.30;53.90
7606;DHT22;3844;53.360;9.738;2022-08-24T17:30:00;27.30;53.90
7606;DHT22;3844;53.360;9.738;2022-08-24T17:32:01;27.20;53.90
7606;DHT22;3844;53.360;9.738;2022-08-24T17:34:03;27.10;53.10
7606;DHT22;3844;53.360;9.738;2022-08-24T17:36:04;27.10;53.50